sensor_id;sensor_type;location;lat;lon;timestamp;temperature;humidity
25532;DHT22;13429;48.816;9.118;2023-10-31T00:01:15;11.80;91.20
25532;DHT22;13429;48.816;9.118;2023-10-31T00:03:40;11.70;91.10
25532;DHT22;13429;48.816;9.118;2023-10-31T00:06:08;11.70;91.10
25532;DHT22;13429;48.816;9.118;2023-10-31T00:08:33;11.70;91.00
25532;DHT22;13429;48.816;9.118;2023-10-31T00:10:59;11.80;91.10
25532;DHT22;13429;48.816;9.118;2023-10-31T00:13:24;11.80;91.00
25532;DHT22;13429;48.816;9.118;2023-10-31T00:15:50;11.80;91.10
25532;DHT22;13429;48.816;9.118;2023-10-31T00:18:15;11.80;91.20
25532;DHT22;13429;48.816;9.118;2023-10-31T00:20:41;11.80;91.40
25532;DHT22;13429;48.816;9.118;2023-10-31T00:23:06;11.70;91.40
25532;DHT22;13429;48.816;9.118;2023-10-31T00:25:32;11.70;91.40
25532;DHT22;13429;48.816;9.118;2023-10-31T00:27:57;11.60;91.30
25532;DHT22;13429;48.816;9.118;2023-10-31T00:30:23;11.60;91.20
25532;DHT22;13429;48.816;9.118;2023-10-31T00:32:48;11.50;91.30
25532;DHT22;13429;48.816;9.118;2023-10-31T00:35:14;11.60;91.30
25532;DHT22;13429;48.816;9.118;2023-10-31T00:37:40;11.60;91.20
25532;DHT22;13429;48.816;9.118;2023-10-31T00:40:07;11.60;91.20
25532;DHT22;13429;48.816;9.118;2023-10-31T00:42:32;11.60;91.20
25532;DHT22;13429;48.816;9.118;2023-10-31T00:44:59;11.60;91.20
25532;DHT22;13429;48.816;9.118;2023-10-31T00:47:24;11.50;91.30
25532;DHT22;13429;48.816;9.118;2023-10-31T00:49:50;11.60;91.50
25532;DHT22;13429;48.816;9.118;2023-10-31T00:52:15;11.60;91.50
25532;DHT22;13429;48.816;9.118;2023-10-31T00:54:41;11.60;91.40
25532;DHT22;13429;48.816;9.118;2023-10-31T00:57:07;11.50;91.40
25532;DHT22;13429;48.816;9.118;2023-10-31T00:59:33;11.60;91.50
25532;DHT22;13429;48.816;9.118;2023-10-31T01:01:59;11.50;91.30
25532;DHT22;13429;48.816;9.118;2023-10-31T01:04:24;11.50;91.30
25532;DHT22;13429;48.816;9.118;2023-10-31T01:06:51;11.40;91.30
25532;DHT22;13429;48.816;9.118;2023-10-31T01:09:16;11.40;91.40
25532;DHT22;13429;48.816;9.118;2023-10-31T01:11:42;11.40;91.30
25532;DHT22;13429;48.816;9.118;2023-10-31T01:14:08;11.30;91.10
25532;DHT22;13429;48.816;9.118;2023-10-31T01:16:33;11.30;91.10
25532;DHT22;13429;48.816;9.118;2023-10-31T01:18:59;11.30;91.20
25532;DHT22;13429;48.816;9.118;2023-10-31T01:21:24;11.30;91.10
25532;DHT22;13429;48.816;9.118;2023-10-31T01:23:50;11.20;91.20
25532;DHT22;13429;48.816;9.118;2023-10-31T01:26:15;11.20;91.20
25532;DHT22;13429;48.816;9.118;2023-10-31T01:28:41;11.10;91.10
25532;DHT22;13429;48.816;9.118;2023-10-31T01:31:06;11.00;90.90
25532;DHT22;13429;48.816;9.118;2023-10-31T01:33:32;10.90;90.90
25532;DHT22;13429;48.816;9.118;2023-10-31T01:35:57;10.80;91.00
25532;DHT22;13429;48.816;9.118;2023-10-31T01:38:23;10.70;91.00
25532;DHT22;13429;48.816;9.118;2023-10-31T01:40:50;10.60;90.40
25532;DHT22;13429;48.816;9.118;2023-10-31T01:43:42;10.50;89.90
25532;DHT22;13429;48.816;9.118;2023-10-31T01:46:08;10.30;89.90
25532;DHT22;13429;48.816;9.118;2023-10-31T01:48:34;10.30;90.00
25532;DHT22;13429;48.816;9.118;2023-10-31T01:51:01;10.30;89.20
25532;DHT22;13429;48.816;9.118;2023-10-31T01:53:30;10.40;89.10
25532;DHT22;13429;48.816;9.118;2023-10-31T01:55:57;10.40;88.90
25532;DHT22;13429;48.816;9.118;2023-10-31T01:58:26;10.40;89.30
25532;DHT22;13429;48.816;9.118;2023-10-31T02:00:54;10.30;88.70
25532;DHT22;13429;48.816;9.118;2023-10-31T02:03:20;10.40;88.70
25532;DHT22;13429;48.816;9.118;2023-10-31T02:05:46;10.40;88.50
25532;DHT22;13429;48.816;9.118;2023-10-31T02:08:12;10.40;88.50
25532;DHT22;13429;48.816;9.118;2023-10-31T02:10:37;10.40;88.70
25532;DHT22;13429;48.816;9.118;2023-10-31T02:13:13;10.40;88.50
25532;DHT22;13429;48.816;9.118;2023-10-31T02:15:39;10.30;88.30
25532;DHT22;13429;48.816;9.118;2023-10-31T02:18:05;10.30;88.50
25532;DHT22;13429;48.816;9.118;2023-10-31T02:20:31;10.30;88.50
25532;DHT22;13429;48.816;9.118;2023-10-31T02:22:56;10.30;88.20
25532;DHT22;13429;48.816;9.118;2023-10-31T02:25:22;10.30;88.30
25532;DHT22;13429;48.816;9.118;2023-10-31T02:27:48;10.30;87.90
25532;DHT22;13429;48.816;9.118;2023-10-31T02:30:13;10.30;88.70
25532;DHT22;13429;48.816;9.118;2023-10-31T02:32:40;10.30;89.00
25532;DHT22;13429;48.816;9.118;2023-10-31T02:35:06;10.30;88.90
25532;DHT22;13429;48.816;9.118;2023-10-31T02:37:32;10.30;88.50
25532;DHT22;13429;48.816;9.118;2023-10-31T02:39:58;10.40;88.50
25532;DHT22;13429;48.816;9.118;2023-10-31T02:42:25;10.30;89.10
25532;DHT22;13429;48.816;9.118;2023-10-31T02:44:50;10.30;89.50
25532;DHT22;13429;48.816;9.118;2023-10-31T02:47:16;10.30;89.80
25532;DHT22;13429;48.816;9.118;2023-10-31T02:49:41;10.30;89.90
25532;DHT22;13429;48.816;9.118;2023-10-31T02:52:07;10.30;90.00
25532;DHT22;13429;48.816;9.118;2023-10-31T02:54:32;10.20;89.70
25532;DHT22;13429;48.816;9.118;2023-10-31T02:56:58;10.20;90.10
25532;DHT22;13429;48.816;9.118;2023-10-31T02:59:24;10.10;90.30
25532;DHT22;13429;48.816;9.118;2023-10-31T03:01:49;10.10;90.50
25532;DHT22;13429;48.816;9.118;2023-10-31T03:04:15;10.10;90.60
25532;DHT22;13429;48.816;9.118;2023-10-31T03:06:40;10.10;90.50
25532;DHT22;13429;48.816;9.118;2023-10-31T03:09:07;10.00;90.70
25532;DHT22;13429;48.816;9.118;2023-10-31T03:11:32;9.90;90.90
25532;DHT22;13429;48.816;9.118;2023-10-31T03:13:58;9.90;90.70
25532;DHT22;13429;48.816;9.118;2023-10-31T03:16:24;9.90;90.60
25532;DHT22;13429;48.816;9.118;2023-10-31T03:18:49;9.80;90.70
25532;DHT22;13429;48.816;9.118;2023-10-31T03:21:15;9.80;90.70
25532;DHT22;13429;48.816;9.118;2023-10-31T03:23:42;9.80;90.60
25532;DHT22;13429;48.816;9.118;2023-10-31T03:26:08;9.80;90.70
25532;DHT22;13429;48.816;9.118;2023-10-31T03:28:33;9.80;90.60
25532;DHT22;13429;48.816;9.118;2023-10-31T03:30:59;9.80;90.50
25532;DHT22;13429;48.816;9.118;2023-10-31T03:33:24;9.80;90.70
25532;DHT22;13429;48.816;9.118;2023-10-31T03:35:50;9.80;90.60
25532;DHT22;13429;48.816;9.118;2023-10-31T03:38:16;9.80;90.70
25532;DHT22;13429;48.816;9.118;2023-10-31T03:40:41;9.90;90.80
25532;DHT22;13429;48.816;9.118;2023-10-31T03:43:07;9.90;90.90
25532;DHT22;13429;48.816;9.118;2023-10-31T03:45:33;9.90;90.80
25532;DHT22;13429;48.816;9.118;2023-10-31T03:47:58;9.90;90.80
25532;DHT22;13429;48.816;9.118;2023-10-31T03:50:24;9.90;90.60
25532;DHT22;13429;48.816;9.118;2023-10-31T03:52:49;9.90;90.80
25532;DHT22;13429;48.816;9.118;2023-10-31T03:55:15;10.00;90.80
25532;DHT22;13429;48.816;9.118;2023-10-31T03:57:41;10.00;90.70
25532;DHT22;13429;48.816;9.118;2023-10-31T04:00:06;9.90;90.90
25532;DHT22;13429;48.816;9.118;2023-10-31T04:02:33;9.90;90.80
25532;DHT22;13429;48.816;9.118;2023-10-31T04:04:58;9.90;90.70
25532;DHT22;13429;48.816;9.118;2023-10-31T04:07:24;9.80;90.70
25532;DHT22;13429;48.816;9.118;2023-10-31T04:09:49;9.80;90.70
25532;DHT22;13429;48.816;9.118;2023-10-31T04:12:15;9.90;90.70
25532;DHT22;13429;48.816;9.118;2023-10-31T04:14:41;9.90;90.60
25532;DHT22;13429;48.816;9.118;2023-10-31T04:17:06;9.90;90.70
25532;DHT22;13429;48.816;9.118;2023-10-31T04:19:32;10.00;90.20
25532;DHT22;13429;48.816;9.118;2023-10-31T04:21:57;10.00;90.50
25532;DHT22;13429;48.816;9.118;2023-10-31T04:24:23;10.00;90.50
25532;DHT22;13429;48.816;9.118;2023-10-31T04:26:48;10.00;90.00
25532;DHT22;13429;48.816;9.118;2023-10-31T04:29:14;10.00;90.30
25532;DHT22;13429;48.816;9.118;2023-10-31T04:31:40;9.90;90.50
25532;DHT22;13429;48.816;9.118;2023-10-31T04:34:05;9.90;90.10
25532;DHT22;13429;48.816;9.118;2023-10-31T04:36:31;9.90;90.00
25532;DHT22;13429;48.816;9.118;2023-10-31T04:38:56;9.80;89.90
25532;DHT22;13429;48.816;9.118;2023-10-31T04:41:22;9.80;89.20
25532;DHT22;13429;48.816;9.118;2023-10-31T04:43:47;9.80;88.20
25532;DHT22;13429;48.816;9.118;2023-10-31T04:46:13;9.80;87.90
25532;DHT22;13429;48.816;9.118;2023-10-31T04:48:39;9.80;86.50
25532;DHT22;13429;48.816;9.118;2023-10-31T04:51:04;9.80;86.00
25532;DHT22;13429;48.816;9.118;2023-10-31T04:53:30;9.80;86.20
25532;DHT22;13429;48.816;9.118;2023-10-31T04:55:57;9.80;85.90
25532;DHT22;13429;48.816;9.118;2023-10-31T04:58:22;9.80;85.70
25532;DHT22;13429;48.816;9.118;2023-10-31T05:00:48;9.80;85.40
25532;DHT22;13429;48.816;9.118;2023-10-31T05:03:13;9.80;85.40
25532;DHT22;13429;48.816;9.118;2023-10-31T05:05:39;9.70;86.20
25532;DHT22;13429;48.816;9.118;2023-10-31T05:08:04;9.70;86.50
25532;DHT22;13429;48.816;9.118;2023-10-31T05:10:30;9.70;86.80
25532;DHT22;13429;48.816;9.118;2023-10-31T05:12:55;9.50;86.80
25532;DHT22;13429;48.816;9.118;2023-10-31T05:15:22;9.50;87.50
25532;DHT22;13429;48.816;9.118;2023-10-31T05:17:47;9.40;88.10
25532;DHT22;13429;48.816;9.118;2023-10-31T05:20:13;9.40;88.50
25532;DHT22;13429;48.816;9.118;2023-10-31T05:22:40;9.30;88.80
25532;DHT22;13429;48.816;9.118;2023-10-31T05:25:06;9.30;88.80
25532;DHT22;13429;48.816;9.118;2023-10-31T05:27:32;9.30;88.80
25532;DHT22;13429;48.816;9.118;2023-10-31T05:29:57;9.30;88.80
25532;DHT22;13429;48.816;9.118;2023-10-31T05:32:23;9.30;89.00
25532;DHT22;13429;48.816;9.118;2023-10-31T05:34:48;9.30;88.80
25532;DHT22;13429;48.816;9.118;2023-10-31T05:37:14;9.30;88.70
25532;DHT22;13429;48.816;9.118;2023-10-31T05:39:40;9.30;88.70
25532;DHT22;13429;48.816;9.118;2023-10-31T05:42:05;9.30;88.10
25532;DHT22;13429;48.816;9.118;2023-10-31T05:44:31;9.30;88.00
25532;DHT22;13429;48.816;9.118;2023-10-31T05:46:56;9.30;88.00
25532;DHT22;13429;48.816;9.118;2023-10-31T05:49:22;9.30;88.20
25532;DHT22;13429;48.816;9.118;2023-10-31T05:51:53;9.30;87.60
25532;DHT22;13429;48.816;9.118;2023-10-31T05:54:19;9.30;88.00
25532;DHT22;13429;48.816;9.118;2023-10-31T05:56:45;9.30;88.00
25532;DHT22;13429;48.816;9.118;2023-10-31T05:59:11;9.30;88.30
25532;DHT22;13429;48.816;9.118;2023-10-31T06:01:37;9.20;88.60
25532;DHT22;13429;48.816;9.118;2023-10-31T06:04:02;9.10;88.60
25532;DHT22;13429;48.816;9.118;2023-10-31T06:06:29;9.10;88.60
25532;DHT22;13429;48.816;9.118;2023-10-31T06:08:55;9.10;89.00
25532;DHT22;13429;48.816;9.118;2023-10-31T06:11:20;9.10;88.60
25532;DHT22;13429;48.816;9.118;2023-10-31T06:13:46;9.10;88.40
25532;DHT22;13429;48.816;9.118;2023-10-31T06:16:13;9.20;87.90
25532;DHT22;13429;48.816;9.118;2023-10-31T06:18:39;9.20;86.70
25532;DHT22;13429;48.816;9.118;2023-10-31T06:21:05;9.30;85.80
25532;DHT22;13429;48.816;9.118;2023-10-31T06:23:33;9.30;86.20
25532;DHT22;13429;48.816;9.118;2023-10-31T06:25:58;9.30;85.40
25532;DHT22;13429;48.816;9.118;2023-10-31T06:28:24;9.40;85.90
25532;DHT22;13429;48.816;9.118;2023-10-31T06:30:49;9.40;85.50
25532;DHT22;13429;48.816;9.118;2023-10-31T06:33:15;9.60;84.70
25532;DHT22;13429;48.816;9.118;2023-10-31T06:35:40;9.60;84.40
25532;DHT22;13429;48.816;9.118;2023-10-31T06:38:06;9.70;83.70
25532;DHT22;13429;48.816;9.118;2023-10-31T06:40:31;9.70;84.60
25532;DHT22;13429;48.816;9.118;2023-10-31T06:42:57;9.80;84.40
25532;DHT22;13429;48.816;9.118;2023-10-31T06:45:24;9.70;84.90
25532;DHT22;13429;48.816;9.118;2023-10-31T06:47:50;9.70;85.60
25532;DHT22;13429;48.816;9.118;2023-10-31T06:50:15;9.70;85.80
25532;DHT22;13429;48.816;9.118;2023-10-31T06:52:41;9.70;86.50
25532;DHT22;13429;48.816;9.118;2023-10-31T06:55:06;9.70;87.10
25532;DHT22;13429;48.816;9.118;2023-10-31T06:57:32;9.70;86.60
25532;DHT22;13429;48.816;9.118;2023-10-31T06:59:58;9.80;86.50
25532;DHT22;13429;48.816;9.118;2023-10-31T07:02:23;9.80;87.00
25532;DHT22;13429;48.816;9.118;2023-10-31T07:04:51;9.80;87.00
25532;DHT22;13429;48.816;9.118;2023-10-31T07:07:16;9.90;87.10
25532;DHT22;13429;48.816;9.118;2023-10-31T07:09:42;9.90;86.60
25532;DHT22;13429;48.816;9.118;2023-10-31T07:12:07;10.00;86.00
25532;DHT22;13429;48.816;9.118;2023-10-31T07:14:33;10.00;85.70
25532;DHT22;13429;48.816;9.118;2023-10-31T07:16:58;10.00;85.70
25532;DHT22;13429;48.816;9.118;2023-10-31T07:19:24;10.10;85.40
25532;DHT22;13429;48.816;9.118;2023-10-31T07:21:49;10.10;86.20
25532;DHT22;13429;48.816;9.118;2023-10-31T07:24:15;10.20;86.10
25532;DHT22;13429;48.816;9.118;2023-10-31T07:26:40;10.30;85.60
25532;DHT22;13429;48.816;9.118;2023-10-31T07:29:06;10.30;84.60
25532;DHT22;13429;48.816;9.118;2023-10-31T07:31:31;10.30;85.30
25532;DHT22;13429;48.816;9.118;2023-10-31T07:33:57;10.40;85.30
25532;DHT22;13429;48.816;9.118;2023-10-31T07:36:22;10.40;85.20
25532;DHT22;13429;48.816;9.118;2023-10-31T07:38:48;10.60;84.80
25532;DHT22;13429;48.816;9.118;2023-10-31T07:41:13;10.60;84.30
25532;DHT22;13429;48.816;9.118;2023-10-31T07:43:38;10.60;84.70
25532;DHT22;13429;48.816;9.118;2023-10-31T07:46:04;10.60;83.80
25532;DHT22;13429;48.816;9.118;2023-10-31T07:48:29;10.70;83.80
25532;DHT22;13429;48.816;9.118;2023-10-31T07:50:55;10.80;83.10
25532;DHT22;13429;48.816;9.118;2023-10-31T07:53:21;10.90;83.00
25532;DHT22;13429;48.816;9.118;2023-10-31T07:55:46;10.90;83.20
25532;DHT22;13429;48.816;9.118;2023-10-31T07:58:11;11.00;82.60
25532;DHT22;13429;48.816;9.118;2023-10-31T08:00:37;11.00;82.90
25532;DHT22;13429;48.816;9.118;2023-10-31T08:03:04;11.00;82.90
25532;DHT22;13429;48.816;9.118;2023-10-31T08:05:30;11.10;82.20
25532;DHT22;13429;48.816;9.118;2023-10-31T08:07:55;11.10;82.70
25532;DHT22;13429;48.816;9.118;2023-10-31T08:10:21;11.20;82.80
25532;DHT22;13429;48.816;9.118;2023-10-31T08:12:46;11.20;82.40
25532;DHT22;13429;48.816;9.118;2023-10-31T08:15:11;11.40;82.30
25532;DHT22;13429;48.816;9.118;2023-10-31T08:17:38;11.50;82.40
25532;DHT22;13429;48.816;9.118;2023-10-31T08:20:03;11.60;81.50
25532;DHT22;13429;48.816;9.118;2023-10-31T08:22:29;11.60;80.80
25532;DHT22;13429;48.816;9.118;2023-10-31T08:24:54;11.80;80.20
25532;DHT22;13429;48.816;9.118;2023-10-31T08:27:20;11.90;80.70
25532;DHT22;13429;48.816;9.118;2023-10-31T08:29:45;11.90;79.50
25532;DHT22;13429;48.816;9.118;2023-10-31T08:32:11;12.10;79.30
25532;DHT22;13429;48.816;9.118;2023-10-31T08:34:36;12.10;78.40
25532;DHT22;13429;48.816;9.118;2023-10-31T08:37:02;12.20;77.80
25532;DHT22;13429;48.816;9.118;2023-10-31T08:39:28;12.20;79.40
25532;DHT22;13429;48.816;9.118;2023-10-31T08:41:53;12.30;78.50
25532;DHT22;13429;48.816;9.118;2023-10-31T08:44:19;12.40;77.20
25532;DHT22;13429;48.816;9.118;2023-10-31T08:46:45;12.30;76.00
25532;DHT22;13429;48.816;9.118;2023-10-31T08:49:10;12.30;76.40
25532;DHT22;13429;48.816;9.118;2023-10-31T08:51:36;12.30;77.20
25532;DHT22;13429;48.816;9.118;2023-10-31T08:54:01;12.20;77.70
25532;DHT22;13429;48.816;9.118;2023-10-31T08:56:26;12.30;77.50
25532;DHT22;13429;48.816;9.118;2023-10-31T08:58:52;12.30;77.20
25532;DHT22;13429;48.816;9.118;2023-10-31T09:01:18;12.30;75.60
25532;DHT22;13429;48.816;9.118;2023-10-31T09:03:44;12.40;77.40
25532;DHT22;13429;48.816;9.118;2023-10-31T09:06:10;12.40;76.70
25532;DHT22;13429;48.816;9.118;2023-10-31T09:08:35;12.60;75.70
25532;DHT22;13429;48.816;9.118;2023-10-31T09:11:03;12.70;74.80
25532;DHT22;13429;48.816;9.118;2023-10-31T09:13:29;12.60;75.40
25532;DHT22;13429;48.816;9.118;2023-10-31T09:15:54;12.70;76.30
25532;DHT22;13429;48.816;9.118;2023-10-31T09:18:20;12.70;74.80
25532;DHT22;13429;48.816;9.118;2023-10-31T09:20:45;12.80;76.00
25532;DHT22;13429;48.816;9.118;2023-10-31T09:23:11;12.90;74.50
25532;DHT22;13429;48.816;9.118;2023-10-31T09:25:36;12.80;74.60
25532;DHT22;13429;48.816;9.118;2023-10-31T09:28:02;12.90;74.80
25532;DHT22;13429;48.816;9.118;2023-10-31T09:30:27;13.00;74.20
25532;DHT22;13429;48.816;9.118;2023-10-31T09:32:53;13.00;73.60
25532;DHT22;13429;48.816;9.118;2023-10-31T09:35:18;13.00;73.10
25532;DHT22;13429;48.816;9.118;2023-10-31T09:37:44;13.00;73.40
25532;DHT22;13429;48.816;9.118;2023-10-31T09:40:13;13.10;74.70
25532;DHT22;13429;48.816;9.118;2023-10-31T09:42:39;13.20;72.40
25532;DHT22;13429;48.816;9.118;2023-10-31T09:45:04;13.30;72.50
25532;DHT22;13429;48.816;9.118;2023-10-31T09:47:30;13.20;72.80
25532;DHT22;13429;48.816;9.118;2023-10-31T09:49:58;13.30;73.00
25532;DHT22;13429;48.816;9.118;2023-10-31T09:52:23;13.40;74.00
25532;DHT22;13429;48.816;9.118;2023-10-31T09:54:49;13.40;71.30
25532;DHT22;13429;48.816;9.118;2023-10-31T09:57:15;13.30;71.60
25532;DHT22;13429;48.816;9.118;2023-10-31T09:59:42;13.30;73.20
25532;DHT22;13429;48.816;9.118;2023-10-31T10:02:07;13.40;72.10
25532;DHT22;13429;48.816;9.118;2023-10-31T10:04:33;13.40;72.80
25532;DHT22;13429;48.816;9.118;2023-10-31T10:07:01;13.40;73.20
25532;DHT22;13429;48.816;9.118;2023-10-31T10:09:27;13.40;72.80
25532;DHT22;13429;48.816;9.118;2023-10-31T10:11:53;13.50;72.00
25532;DHT22;13429;48.816;9.118;2023-10-31T10:14:18;13.50;70.40
25532;DHT22;13429;48.816;9.118;2023-10-31T10:16:44;13.40;71.50
25532;DHT22;13429;48.816;9.118;2023-10-31T10:19:19;13.40;71.20
25532;DHT22;13429;48.816;9.118;2023-10-31T10:21:49;13.40;71.30
25532;DHT22;13429;48.816;9.118;2023-10-31T10:24:16;13.40;72.80
25532;DHT22;13429;48.816;9.118;2023-10-31T10:26:41;13.30;70.90
25532;DHT22;13429;48.816;9.118;2023-10-31T10:29:07;13.40;71.40
25532;DHT22;13429;48.816;9.118;2023-10-31T10:31:32;13.50;71.10
25532;DHT22;13429;48.816;9.118;2023-10-31T10:33:58;13.50;70.70
25532;DHT22;13429;48.816;9.118;2023-10-31T10:36:23;13.60;70.80
25532;DHT22;13429;48.816;9.118;2023-10-31T10:38:51;13.70;72.20
25532;DHT22;13429;48.816;9.118;2023-10-31T10:41:19;13.60;72.50
25532;DHT22;13429;48.816;9.118;2023-10-31T10:43:46;13.60;72.30
25532;DHT22;13429;48.816;9.118;2023-10-31T10:46:12;13.60;72.30
25532;DHT22;13429;48.816;9.118;2023-10-31T10:48:40;13.50;73.70
25532;DHT22;13429;48.816;9.118;2023-10-31T10:53:35;13.50;74.20
25532;DHT22;13429;48.816;9.118;2023-10-31T10:56:03;13.70;72.50
25532;DHT22;13429;48.816;9.118;2023-10-31T10:58:51;13.80;72.00
25532;DHT22;13429;48.816;9.118;2023-10-31T11:01:20;13.90;70.70
25532;DHT22;13429;48.816;9.118;2023-10-31T11:03:46;14.00;71.60
25532;DHT22;13429;48.816;9.118;2023-10-31T11:06:11;14.10;68.90
25532;DHT22;13429;48.816;9.118;2023-10-31T11:08:37;14.00;69.50
25532;DHT22;13429;48.816;9.118;2023-10-31T11:11:04;14.10;70.70
25532;DHT22;13429;48.816;9.118;2023-10-31T11:13:29;14.20;71.10
25532;DHT22;13429;48.816;9.118;2023-10-31T11:15:55;14.40;71.30
25532;DHT22;13429;48.816;9.118;2023-10-31T11:18:22;14.30;69.90
25532;DHT22;13429;48.816;9.118;2023-10-31T11:20:48;14.30;70.30
25532;DHT22;13429;48.816;9.118;2023-10-31T11:23:14;14.30;70.30
25532;DHT22;13429;48.816;9.118;2023-10-31T11:25:43;14.40;70.00
25532;DHT22;13429;48.816;9.118;2023-10-31T11:28:15;14.60;70.00
25532;DHT22;13429;48.816;9.118;2023-10-31T11:30:41;14.70;70.70
25532;DHT22;13429;48.816;9.118;2023-10-31T11:33:12;14.70;70.80
25532;DHT22;13429;48.816;9.118;2023-10-31T11:35:41;14.70;67.70
25532;DHT22;13429;48.816;9.118;2023-10-31T11:38:10;14.60;68.60
25532;DHT22;13429;48.816;9.118;2023-10-31T11:40:59;14.60;68.60
25532;DHT22;13429;48.816;9.118;2023-10-31T11:43:22;14.50;67.50
25532;DHT22;13429;48.816;9.118;2023-10-31T11:45:48;14.40;70.60
25532;DHT22;13429;48.816;9.118;2023-10-31T11:48:14;14.30;69.90
25532;DHT22;13429;48.816;9.118;2023-10-31T11:50:39;14.40;70.30
25532;DHT22;13429;48.816;9.118;2023-10-31T11:53:06;14.30;70.90
25532;DHT22;13429;48.816;9.118;2023-10-31T11:55:35;14.30;70.60
25532;DHT22;13429;48.816;9.118;2023-10-31T12:00:42;14.30;69.80
25532;DHT22;13429;48.816;9.118;2023-10-31T12:03:08;14.20;69.00
25532;DHT22;13429;48.816;9.118;2023-10-31T12:05:33;14.10;69.90
25532;DHT22;13429;48.816;9.118;2023-10-31T12:07:58;14.00;70.20
25532;DHT22;13429;48.816;9.118;2023-10-31T12:10:24;13.80;68.80
25532;DHT22;13429;48.816;9.118;2023-10-31T12:12:50;13.80;69.50
25532;DHT22;13429;48.816;9.118;2023-10-31T12:15:16;13.90;69.10
25532;DHT22;13429;48.816;9.118;2023-10-31T12:17:41;14.00;69.60
25532;DHT22;13429;48.816;9.118;2023-10-31T12:20:07;14.10;67.20
25532;DHT22;13429;48.816;9.118;2023-10-31T12:22:34;14.20;66.80
25532;DHT22;13429;48.816;9.118;2023-10-31T12:25:00;14.30;66.50
25532;DHT22;13429;48.816;9.118;2023-10-31T12:27:41;14.20;67.90
25532;DHT22;13429;48.816;9.118;2023-10-31T12:30:07;14.30;66.70
25532;DHT22;13429;48.816;9.118;2023-10-31T12:32:33;14.50;65.50
25532;DHT22;13429;48.816;9.118;2023-10-31T12:34:58;14.60;65.60
25532;DHT22;13429;48.816;9.118;2023-10-31T12:37:24;14.60;66.10
25532;DHT22;13429;48.816;9.118;2023-10-31T12:39:49;14.40;65.80
25532;DHT22;13429;48.816;9.118;2023-10-31T12:42:15;14.30;65.80
25532;DHT22;13429;48.816;9.118;2023-10-31T12:44:41;14.30;66.40
25532;DHT22;13429;48.816;9.118;2023-10-31T12:47:09;14.20;67.50
25532;DHT22;13429;48.816;9.118;2023-10-31T12:49:35;14.20;66.90
25532;DHT22;13429;48.816;9.118;2023-10-31T12:52:04;14.00;67.90
25532;DHT22;13429;48.816;9.118;2023-10-31T12:54:30;13.80;68.30
25532;DHT22;13429;48.816;9.118;2023-10-31T12:56:59;13.70;69.30
25532;DHT22;13429;48.816;9.118;2023-10-31T12:59:25;13.60;69.80
25532;DHT22;13429;48.816;9.118;2023-10-31T13:01:51;13.60;69.80
25532;DHT22;13429;48.816;9.118;2023-10-31T13:04:29;13.50;68.90
25532;DHT22;13429;48.816;9.118;2023-10-31T13:06:58;13.60;69.50
25532;DHT22;13429;48.816;9.118;2023-10-31T13:09:28;13.80;68.90
25532;DHT22;13429;48.816;9.118;2023-10-31T13:11:56;14.20;68.00
25532;DHT22;13429;48.816;9.118;2023-10-31T13:14:22;14.40;67.90
25532;DHT22;13429;48.816;9.118;2023-10-31T13:16:47;14.50;67.50
25532;DHT22;13429;48.816;9.118;2023-10-31T13:19:13;14.60;66.80
25532;DHT22;13429;48.816;9.118;2023-10-31T13:21:38;14.60;66.40
25532;DHT22;13429;48.816;9.118;2023-10-31T13:24:04;14.40;66.20
25532;DHT22;13429;48.816;9.118;2023-10-31T13:26:30;14.30;66.70
25532;DHT22;13429;48.816;9.118;2023-10-31T13:28:55;14.20;67.80
25532;DHT22;13429;48.816;9.118;2023-10-31T13:31:21;14.10;67.90
25532;DHT22;13429;48.816;9.118;2023-10-31T13:33:46;13.90;68.60
25532;DHT22;13429;48.816;9.118;2023-10-31T13:36:12;13.90;68.70
25532;DHT22;13429;48.816;9.118;2023-10-31T13:38:37;13.90;69.30
25532;DHT22;13429;48.816;9.118;2023-10-31T13:41:03;13.90;69.10
25532;DHT22;13429;48.816;9.118;2023-10-31T13:43:29;14.00;68.90
25532;DHT22;13429;48.816;9.118;2023-10-31T13:45:54;14.00;68.60
25532;DHT22;13429;48.816;9.118;2023-10-31T13:48:20;14.00;68.30
25532;DHT22;13429;48.816;9.118;2023-10-31T13:50:46;13.80;69.00
25532;DHT22;13429;48.816;9.118;2023-10-31T13:53:11;13.80;69.20
25532;DHT22;13429;48.816;9.118;2023-10-31T13:55:37;13.80;69.80
25532;DHT22;13429;48.816;9.118;2023-10-31T13:58:02;13.90;70.40
25532;DHT22;13429;48.816;9.118;2023-10-31T14:00:28;13.90;69.40
25532;DHT22;13429;48.816;9.118;2023-10-31T14:02:54;13.90;69.50
25532;DHT22;13429;48.816;9.118;2023-10-31T14:05:20;13.90;69.50
25532;DHT22;13429;48.816;9.118;2023-10-31T14:07:46;13.90;69.20
25532;DHT22;13429;48.816;9.118;2023-10-31T14:10:11;13.90;69.70
25532;DHT22;13429;48.816;9.118;2023-10-31T14:12:37;14.00;69.10
25532;DHT22;13429;48.816;9.118;2023-10-31T14:15:03;14.00;70.10
25532;DHT22;13429;48.816;9.118;2023-10-31T14:17:28;14.10;69.50
25532;DHT22;13429;48.816;9.118;2023-10-31T14:19:54;13.90;68.60
25532;DHT22;13429;48.816;9.118;2023-10-31T14:22:20;13.90;68.20
25532;DHT22;13429;48.816;9.118;2023-10-31T14:24:46;13.90;68.30
25532;DHT22;13429;48.816;9.118;2023-10-31T14:27:12;13.90;68.50
25532;DHT22;13429;48.816;9.118;2023-10-31T14:29:37;14.00;68.10
25532;DHT22;13429;48.816;9.118;2023-10-31T14:32:06;13.90;68.60
25532;DHT22;13429;48.816;9.118;2023-10-31T14:34:32;13.80;69.00
25532;DHT22;13429;48.816;9.118;2023-10-31T14:36:57;13.80;69.00
25532;DHT22;13429;48.816;9.118;2023-10-31T14:39:23;13.80;69.50
25532;DHT22;13429;48.816;9.118;2023-10-31T14:41:48;13.70;69.30
25532;DHT22;13429;48.816;9.118;2023-10-31T14:44:14;13.70;70.50
25532;DHT22;13429;48.816;9.118;2023-10-31T14:46:40;13.70;69.80
25532;DHT22;13429;48.816;9.118;2023-10-31T14:49:06;13.60;72.60
25532;DHT22;13429;48.816;9.118;2023-10-31T14:51:31;13.50;72.60
25532;DHT22;13429;48.816;9.118;2023-10-31T14:53:56;13.40;73.00
25532;DHT22;13429;48.816;9.118;2023-10-31T14:56:23;13.20;73.20
25532;DHT22;13429;48.816;9.118;2023-10-31T14:58:49;13.00;74.50
25532;DHT22;13429;48.816;9.118;2023-10-31T15:01:15;12.90;75.00
25532;DHT22;13429;48.816;9.118;2023-10-31T15:03:41;12.80;75.70
25532;DHT22;13429;48.816;9.118;2023-10-31T15:06:07;12.60;76.30
25532;DHT22;13429;48.816;9.118;2023-10-31T15:08:33;12.40;77.90
25532;DHT22;13429;48.816;9.118;2023-10-31T15:10:58;12.40;78.30
25532;DHT22;13429;48.816;9.118;2023-10-31T15:13:24;12.40;78.50
25532;DHT22;13429;48.816;9.118;2023-10-31T15:15:49;12.50;78.90
25532;DHT22;13429;48.816;9.118;2023-10-31T15:18:15;12.50;77.70
25532;DHT22;13429;48.816;9.118;2023-10-31T15:20:40;12.40;78.10
25532;DHT22;13429;48.816;9.118;2023-10-31T15:23:06;12.30;78.20
25532;DHT22;13429;48.816;9.118;2023-10-31T15:25:31;12.30;79.00
25532;DHT22;13429;48.816;9.118;2023-10-31T15:27:57;12.20;79.90
25532;DHT22;13429;48.816;9.118;2023-10-31T15:30:22;12.10;79.50
25532;DHT22;13429;48.816;9.118;2023-10-31T15:32:47;12.10;80.10